Time;durP1;ratioP1;P1;durP2;ratioP2;P2;SDS_P1;SDS_P2;PMS_P1;PMS_P2;Temp;Humidity;BMP_temperature;BMP_pressure;BME280_temperature;BME280_humidity;BME280_pressure;Samples;Min_cycle;Max_cycle;Signal;HPM_P1;HPM_P2
2023/08/20 00:01:05;;;;;;;10.73;8.05;;;;;;;25.40;55.48;100668.75;4979507;28;20117;-83
2023/08/20 00:03:30;;;;;;;12.15;8.50;;;;;;;25.36;55.33;100661.13;4976066;28;20486;-87
2023/08/20 00:05:56;;;;;;;13.82;9.05;;;;;;;25.42;55.26;100661.09;4984423;28;20041;-85
2023/08/20 00:08:21;;;;;;;16.38;8.82;;;;;;;25.46;55.10;100661.50;4980260;28;20058;-87
2023/08/20 00:10:47;;;;;;;13.25;8.30;;;;;;;25.58;54.72;100681.78;4978722;28;20046;-85
2023/08/20 00:13:12;;;;;;;18.33;7.65;;;;;;;25.51;55.06;100680.97;4975623;28;20034;-85
2023/08/20 00:15:38;;;;;;;12.23;7.53;;;;;;;25.56;54.96;100683.09;4973960;28;20027;-85
2023/08/20 00:18:04;;;;;;;17.25;7.55;;;;;;;25.59;54.90;100686.25;4974553;28;20162;-87
2023/08/20 00:20:30;;;;;;;17.33;8.20;;;;;;;25.60;54.84;100682.41;4974706;28;20129;-87
2023/08/20 00:22:55;;;;;;;12.73;9.15;;;;;;;25.69;54.53;100683.84;4977925;28;20371;-87
2023/08/20 00:25:21;;;;;;;12.18;7.97;;;;;;;25.77;54.16;100702.03;4980431;28;20055;-89
2023/08/20 00:27:46;;;;;;;13.52;8.38;;;;;;;25.79;54.00;100684.19;4982921;28;20019;-84
2023/08/20 00:30:12;;;;;;;11.73;7.85;;;;;;;25.85;54.26;100683.31;4976570;28;20050;-87
2023/08/20 00:32:38;;;;;;;11.93;8.23;;;;;;;25.81;54.28;100692.22;4972519;28;20054;-85
2023/08/20 00:35:04;;;;;;;13.80;7.63;;;;;;;25.71;54.20;100662.44;4972484;28;20065;-87
2023/08/20 00:37:30;;;;;;;14.23;7.45;;;;;;;25.76;54.10;100667.25;4972834;28;20035;-85
2023/08/20 00:39:57;;;;;;;12.63;7.40;;;;;;;25.87;54.20;100686.66;4972472;28;20529;-90
2023/08/20 00:42:25;;;;;;;16.00;9.45;;;;;;;25.87;54.24;100683.91;4972891;28;20419;-87
2023/08/20 00:44:51;;;;;;;16.30;8.98;;;;;;;25.88;54.08;100685.63;4972582;28;20578;-85
2023/08/20 00:47:18;;;;;;;25.85;9.48;;;;;;;25.87;54.27;100692.19;4972388;28;20106;-85
2023/08/20 00:49:44;;;;;;;16.30;8.10;;;;;;;25.80;54.39;100674.88;4972475;28;20177;-84
2023/08/20 00:52:11;;;;;;;15.82;8.75;;;;;;;25.89;54.23;100701.09;4972209;28;20553;-85
2023/08/20 00:54:37;;;;;;;19.77;9.18;;;;;;;25.83;54.32;100674.44;4972730;28;20067;-87
2023/08/20 00:57:03;;;;;;;18.25;8.77;;;;;;;25.82;54.60;100681.00;4971890;28;20027;-89
2023/08/20 00:59:31;;;;;;;13.13;9.00;;;;;;;25.81;54.61;100672.94;4972445;28;20514;-85
2023/08/20 01:01:57;;;;;;;20.25;9.10;;;;;;;25.71;54.43;100656.94;4972200;28;20038;-85
2023/08/20 01:04:23;;;;;;;18.80;9.18;;;;;;;25.76;54.40;100673.63;4972243;28;20081;-86
2023/08/20 01:06:54;;;;;;;16.75;9.57;;;;;;;25.87;54.24;100692.19;4972236;28;20479;-86
2023/08/20 01:09:37;;;;;;;24.90;10.38;;;;;;;25.85;54.58;100690.72;4972395;28;20089;-86
2023/08/20 01:12:03;;;;;;;26.02;9.95;;;;;;;25.77;54.66;100686.34;4972519;28;20098;-86
2023/08/20 01:14:29;;;;;;;11.15;7.60;;;;;;;25.58;54.45;100659.75;4972480;28;20030;-86
2023/08/20 01:16:54;;;;;;;12.32;8.15;;;;;;;25.74;54.69;100691.44;4972821;28;20489;-88
2023/08/20 01:19:22;;;;;;;13.75;8.18;;;;;;;25.64;55.00;100663.53;4987818;28;20027;-87
2023/08/20 01:22:05;;;;;;;12.07;8.38;;;;;;;25.76;54.84;100684.63;4986031;28;20415;-87
2023/08/20 01:24:51;;;;;;;17.90;8.18;;;;;;;25.71;54.92;100690.00;4988284;28;20031;-85
2023/08/20 01:27:30;;;;;;;10.35;8.00;;;;;;;25.77;55.02;100691.84;4987534;28;20038;-88
2023/08/20 01:29:56;;;;;;;14.30;8.60;;;;;;;25.57;54.76;100651.69;4984617;28;20023;-87
2023/08/20 01:32:22;;;;;;;21.50;8.60;;;;;;;25.74;54.79;100677.66;4975051;28;20053;-87
2023/08/20 01:34:48;;;;;;;13.98;7.93;;;;;;;25.72;54.83;100672.38;4972466;28;20031;-85
2023/08/20 01:37:14;;;;;;;15.30;7.65;;;;;;;25.81;54.69;100687.56;4972912;28;20030;-85
2023/08/20 01:39:39;;;;;;;12.10;8.00;;;;;;;25.85;54.84;100686.06;4972432;28;20105;-86
2023/08/20 01:42:05;;;;;;;15.57;8.07;;;;;;;25.77;54.68;100669.81;4989370;28;20126;-86
2023/08/20 01:44:31;;;;;;;14.52;8.57;;;;;;;25.76;54.60;100670.88;4978445;28;20031;-88
2023/08/20 01:46:57;;;;;;;26.55;9.25;;;;;;;25.84;54.75;100681.59;4980102;28;20054;-86
2023/08/20 01:49:23;;;;;;;17.30;10.35;;;;;;;25.86;54.48;100685.00;4980013;28;20023;-86
2023/08/20 01:51:48;;;;;;;15.65;8.05;;;;;;;25.80;54.46;100674.88;4977697;28;20398;-84
2023/08/20 01:54:14;;;;;;;15.57;8.50;;;;;;;25.78;54.30;100671.47;4989946;28;20121;-87
2023/08/20 01:56:40;;;;;;;11.43;7.55;;;;;;;25.88;54.58;100687.53;4990072;28;20026;-88
2023/08/20 01:59:05;;;;;;;15.90;7.90;;;;;;;25.69;54.73;100652.69;4991033;28;20037;-89
2023/08/20 02:01:31;;;;;;;11.05;6.93;;;;;;;25.86;54.80;100679.50;4985985;28;20033;-89
2023/08/20 02:03:56;;;;;;;12.63;8.40;;;;;;;25.75;55.11;100660.91;4979877;28;20391;-87
2023/08/20 02:06:21;;;;;;;12.80;8.18;;;;;;;25.78;55.10;100671.47;4978095;28;20035;-85
2023/08/20 02:08:47;;;;;;;12.52;7.68;;;;;;;25.87;54.82;100677.59;4972983;28;20084;-86
2023/08/20 02:11:12;;;;;;;15.77;7.88;;;;;;;25.87;54.68;100680.34;4970602;28;20048;-88
2023/08/20 02:13:38;;;;;;;14.70;8.95;;;;;;;25.81;54.83;100670.19;4971360;28;20173;-88
2023/08/20 02:16:04;;;;;;;12.82;7.28;;;;;;;25.77;54.65;100656.03;4969260;28;20026;-87
2023/08/20 02:18:30;;;;;;;14.88;8.23;;;;;;;25.86;54.71;100673.97;4970679;28;20030;-86
2023/08/20 02:20:56;;;;;;;17.20;8.27;;;;;;;25.83;54.79;100665.31;4970165;28;20078;-87
2023/08/20 02:23:22;;;;;;;14.23;8.13;;;;;;;25.88;54.80;100671.84;4970165;28;20050;-88
2023/08/20 02:25:48;;;;;;;11.07;7.70;;;;;;;25.80;54.92;100663.84;4971183;28;20553;-88
2023/08/20 02:28:13;;;;;;;16.35;8.90;;;;;;;25.86;55.19;100682.25;4970536;28;20034;-86
2023/08/20 02:30:43;;;;;;;14.98;7.97;;;;;;;25.83;55.46;100674.44;4973079;28;20079;-87
2023/08/20 02:33:09;;;;;;;26.70;9.45;;;;;;;25.85;55.43;100686.06;4974507;28;20031;-86
2023/08/20 02:35:36;;;;;;;27.90;9.98;;;;;;;25.76;55.98;100689.31;4974164;28;20477;-86
2023/08/20 02:38:01;;;;;;;17.45;9.77;;;;;;;25.73;56.46;100693.34;4978451;28;20023;-88
2023/08/20 02:40:27;;;;;;;31.35;11.55;;;;;;;25.70;56.39;100696.56;4979305;28;20114;-87
2023/08/20 02:42:52;;;;;;;30.27;12.25;;;;;;;25.66;56.85;100697.19;4974317;28;20121;-87
2023/08/20 02:45:17;;;;;;;31.35;10.10;;;;;;;25.55;56.62;100681.38;4973658;28;20034;-86
2023/08/20 02:47:43;;;;;;;20.38;10.05;;;;;;;25.65;56.75;100704.66;4973652;28;20027;-86
2023/08/20 02:50:09;;;;;;;19.33;10.52;;;;;;;25.55;56.97;100690.50;4973199;28;20077;-85
2023/08/20 02:52:34;;;;;;;23.23;10.30;;;;;;;25.39;57.03;100678.06;4973921;28;20109;-85
2023/08/20 02:55:00;;;;;;;29.67;10.85;;;;;;;25.25;57.20;100654.41;4974325;28;20027;-86
2023/08/20 02:57:25;;;;;;;13.13;9.25;;;;;;;25.46;57.64;100705.56;4974338;28;20034;-86
2023/08/20 02:59:51;;;;;;;26.15;10.90;;;;;;;25.35;57.74;100687.00;4973854;28;20041;-87
2023/08/20 03:02:17;;;;;;;29.10;11.13;;;;;;;25.20;57.69;100670.72;4973500;28;20027;-84
2023/08/20 03:04:43;;;;;;;22.83;9.90;;;;;;;25.15;57.53;100664.19;4973701;28;20033;-86
2023/08/20 03:07:08;;;;;;;22.80;9.73;;;;;;;25.29;57.51;100690.59;4973629;28;20118;-87
2023/08/20 03:09:33;;;;;;;19.55;8.90;;;;;;;25.26;57.61;100699.28;4973640;28;20073;-85
2023/08/20 03:11:59;;;;;;;15.32;10.38;;;;;;;25.31;57.60;100707.75;4973757;28;20097;-88
2023/08/20 03:14:24;;;;;;;19.67;10.85;;;;;;;25.26;57.56;100704.78;4974080;28;20037;-86
2023/08/20 03:16:50;;;;;;;29.52;10.27;;;;;;;25.19;57.65;100692.97;4972370;28;20495;-86
2023/08/20 03:19:16;;;;;;;26.38;10.93;;;;;;;25.14;57.85;100681.75;4973359;28;20392;-85
2023/08/20 03:21:41;;;;;;;21.40;11.02;;;;;;;25.28;57.97;100708.19;4973106;28;20557;-87
2023/08/20 03:24:07;;;;;;;24.48;10.75;;;;;;;25.30;58.20;100697.78;4973467;28;20038;-87
2023/08/20 03:26:33;;;;;;;28.50;12.75;;;;;;;25.17;58.09;100684.09;4973157;28;20050;-85
2023/08/20 03:28:59;;;;;;;30.05;13.50;;;;;;;25.07;58.37;100681.81;4973239;28;20480;-85
2023/08/20 03:31:25;;;;;;;23.23;12.75;;;;;;;25.13;58.67;100693.84;4988222;28;20264;-85
2023/08/20 03:33:50;;;;;;;24.63;12.50;;;;;;;25.06;58.67;100684.78;4973008;28;20127;-87
2023/08/20 03:36:16;;;;;;;27.50;11.95;;;;;;;25.12;58.76;100705.91;4973140;28;20483;-87
2023/08/20 03:38:41;;;;;;;27.05;13.52;;;;;;;24.95;58.73;100682.72;4973242;28;20023;-87
2023/08/20 03:41:07;;;;;;;33.55;13.45;;;;;;;24.94;58.70;100678.25;4971082;28;20118;-88
2023/08/20 03:43:32;;;;;;;28.70;13.90;;;;;;;25.03;58.33;100697.06;4973115;28;20117;-87
2023/08/20 03:45:58;;;;;;;41.10;13.75;;;;;;;24.99;58.57;100678.44;4973323;28;20023;-86
2023/08/20 03:48:23;;;;;;;30.80;14.40;;;;;;;24.92;58.28;100668.31;4973041;28;20034;-86
2023/08/20 03:50:49;;;;;;;30.25;15.63;;;;;;;25.12;58.11;100697.66;4973019;28;20034;-86
2023/08/20 03:53:14;;;;;;;28.15;16.10;;;;;;;25.05;58.44;100685.81;4973104;28;20031;-86
2023/08/20 03:55:40;;;;;;;33.47;13.18;;;;;;;25.05;58.51;100685.81;4972718;28;20561;-88
2023/08/20 03:58:05;;;;;;;33.15;14.90;;;;;;;24.90;58.44;100667.69;4972765;28;20027;-87
2023/08/20 04:00:31;;;;;;;31.30;14.50;;;;;;;25.02;58.17;100680.75;4973835;28;20098;-87
2023/08/20 04:02:56;;;;;;;28.38;15.73;;;;;;;25.04;57.92;100687.75;4982503;28;20479;-87
2023/08/20 04:05:22;;;;;;;37.78;15.32;;;;;;;25.05;58.06;100685.81;4981533;28;20031;-87
2023/08/20 04:07:47;;;;;;;27.65;15.07;;;;;;;25.13;57.87;100704.88;4984353;28;20101;-85
2023/08/20 04:10:13;;;;;;;35.53;17.02;;;;;;;25.09;57.77;100693.44;4984181;28;20031;-85
2023/08/20 04:12:38;;;;;;;30.50;16.65;;;;;;;25.03;57.70;100671.44;4983968;28;20058;-88
2023/08/20 04:15:04;;;;;;;31.40;17.75;;;;;;;25.09;58.03;100676.94;4982101;28;20031;-88
2023/08/20 04:17:29;;;;;;;30.55;18.65;;;;;;;25.13;57.81;100688.34;4978359;28;20537;-86
2023/08/20 04:19:55;;;;;;;43.83;16.88;;;;;;;25.17;57.77;100695.09;4984765;28;20034;-86
2023/08/20 04:22:20;;;;;;;35.55;15.85;;;;;;;25.13;57.88;100683.69;4981088;28;20106;-86
2023/08/20 04:24:46;;;;;;;34.00;15.40;;;;;;;25.03;57.89;100672.28;4972740;28;20050;-84
2023/08/20 04:27:11;;;;;;;18.80;10.20;;;;;;;25.16;57.07;100690.66;4972798;28;20035;-86
2023/08/20 04:29:36;;;;;;;25.77;12.60;;;;;;;25.17;56.90;100678.56;4972335;28;20027;-86
2023/08/20 04:32:02;;;;;;;25.02;10.77;;;;;;;25.25;56.49;100683.84;4972727;28;20034;-80
2023/08/20 04:34:27;;;;;;;17.55;10.57;;;;;;;25.34;56.13;100685.28;4972071;28;20030;-80
2023/08/20 04:36:53;;;;;;;17.65;9.95;;;;;;;25.40;55.75;100678.91;4972425;28;20041;-80
2023/08/20 04:39:18;;;;;;;18.80;9.73;;;;;;;25.51;55.18;100689.25;4972046;28;20029;-81
2023/08/20 04:41:44;;;;;;;19.90;9.25;;;;;;;25.62;54.62;100684.97;4971967;28;20035;-82
2023/08/20 04:44:09;;;;;;;25.90;8.68;;;;;;;25.74;54.21;100685.94;4971929;28;20093;-81
2023/08/20 04:46:35;;;;;;;24.25;8.52;;;;;;;25.83;53.38;100690.97;4971979;28;20149;-80
2023/08/20 04:49:00;;;;;;;22.05;7.40;;;;;;;25.93;53.35;100687.72;4971501;28;20019;-81
2023/08/20 04:51:26;;;;;;;19.00;8.90;;;;;;;26.01;53.59;100686.59;4971490;28;20037;-80
2023/08/20 04:53:51;;;;;;;17.13;7.55;;;;;;;26.05;53.18;100676.81;4970852;28;20049;-81
2023/08/20 04:56:17;;;;;;;12.13;7.72;;;;;;;26.20;53.09;100696.66;4972282;28;20109;-88
2023/08/20 04:58:42;;;;;;;14.00;8.68;;;;;;;26.11;52.75;100662.13;4972574;28;20031;-89
2023/08/20 05:01:08;;;;;;;16.63;7.07;;;;;;;26.31;52.45;100676.59;4972793;28;20487;-87
2023/08/20 05:03:34;;;;;;;15.70;7.95;;;;;;;26.27;52.38;100658.81;4972747;28;20450;-86
2023/08/20 05:06:00;;;;;;;22.20;8.60;;;;;;;26.47;52.20;100665.00;4972434;28;20503;-87
2023/08/20 05:08:25;;;;;;;10.77;8.07;;;;;;;26.56;51.75;100663.63;4970610;28;20059;-87
2023/08/20 05:10:51;;;;;;;15.25;7.93;;;;;;;26.63;51.68;100669.06;4972661;28;20384;-86
2023/08/20 05:13:17;;;;;;;12.30;6.95;;;;;;;26.83;51.64;100683.53;4972517;28;20106;-82
2023/08/20 05:15:43;;;;;;;15.00;7.63;;;;;;;26.82;50.99;100671.63;4971094;28;20431;-80
2023/08/20 05:18:08;;;;;;;17.15;9.60;;;;;;;26.98;50.88;100673.78;4971437;28;20089;-80
2023/08/20 05:20:34;;;;;;;24.90;11.38;;;;;;;27.11;51.02;100688.50;4971258;28;20069;-81
2023/08/20 05:22:59;;;;;;;13.07;9.18;;;;;;;27.06;50.92;100669.88;4973444;28;20399;-86
2023/08/20 05:25:25;;;;;;;13.10;7.90;;;;;;;27.11;50.70;100655.38;4968646;28;20093;-87
2023/08/20 05:27:50;;;;;;;19.08;8.10;;;;;;;27.27;50.46;100671.31;4972824;28;20027;-85
2023/08/20 05:30:16;;;;;;;12.68;7.05;;;;;;;27.36;50.33;100664.38;4971796;28;20109;-81
2023/08/20 05:32:41;;;;;;;13.55;7.65;;;;;;;27.43;50.27;100665.19;4971239;28;20113;-83
2023/08/20 05:35:07;;;;;;;15.20;7.80;;;;;;;27.51;50.09;100667.59;4971413;28;20550;-86
2023/08/20 05:37:32;;;;;;;14.65;7.43;;;;;;;27.61;49.87;100672.56;4971539;28;20023;-83
2023/08/20 05:39:58;;;;;;;11.73;7.35;;;;;;;27.67;49.91;100671.63;4970668;28;20098;-83
2023/08/20 05:42:23;;;;;;;20.08;7.35;;;;;;;27.72;49.38;100669.84;4953322;28;20027;-86
2023/08/20 05:44:49;;;;;;;16.67;7.47;;;;;;;27.83;49.18;100660.72;4958716;28;20043;-92
2023/08/20 05:47:14;;;;;;;17.77;10.10;;;;;;;27.90;49.32;100658.72;4952964;28;20038;-88
2023/08/20 05:49:39;;;;;;;17.55;8.75;;;;;;;27.97;48.75;100653.91;4954121;28;20031;-89
2023/08/20 05:52:05;;;;;;;22.92;10.50;;;;;;;28.12;48.33;100658.16;4952734;28;20031;-86
2023/08/20 05:54:30;;;;;;;19.20;10.60;;;;;;;28.26;48.04;100670.69;4955744;28;20042;-83
2023/08/20 05:56:58;;;;;;;14.85;9.43;;;;;;;28.34;47.86;100662.03;4955932;28;20104;-88
2023/08/20 05:59:24;;;;;;;20.00;9.27;;;;;;;28.42;47.75;100664.44;4953579;28;20407;-85
2023/08/20 06:01:49;;;;;;;15.30;6.70;;;;;;;28.41;47.43;100652.53;4951840;28;20035;-87
2023/08/20 06:04:18;;;;;;;19.30;7.22;;;;;;;28.58;46.90;100658.19;4953549;28;20071;-87
2023/08/20 06:06:43;;;;;;;11.20;6.85;;;;;;;28.64;46.55;100654.44;4951959;28;20036;-83
2023/08/20 06:09:09;;;;;;;15.65;7.53;;;;;;;28.56;46.76;100635.44;4951579;28;20094;-81
2023/08/20 06:11:35;;;;;;;12.98;6.50;;;;;;;28.88;45.80;100653.34;4968387;28;20031;-83
2023/08/20 06:14:00;;;;;;;24.92;9.18;;;;;;;28.99;45.49;100659.97;4968893;28;20034;-85
2023/08/20 06:16:31;;;;;;;14.13;6.28;;;;;;;29.09;45.08;100660.16;4970511;28;20091;-81
2023/08/20 06:18:59;;;;;;;10.00;6.55;;;;;;;29.17;45.08;100657.84;4974220;28;20047;-93
2023/08/20 06:21:26;;;;;;;17.52;6.65;;;;;;;29.26;44.62;100661.13;4974312;28;20047;-89
2023/08/20 06:23:55;;;;;;;12.48;6.80;;;;;;;29.25;43.85;100648.34;4973205;28;20066;-91
2023/08/20 06:26:20;;;;;;;23.95;7.28;;;;;;;29.30;43.59;100633.72;4976397;28;20015;-90
2023/08/20 06:28:46;;;;;;;12.25;7.18;;;;;;;29.50;43.54;100662.72;5005116;28;20030;-87
2023/08/20 06:31:11;;;;;;;13.65;6.28;;;;;;;29.54;43.75;100655.56;4988834;28;20023;-88
2023/08/20 06:33:38;;;;;;;12.55;7.30;;;;;;;29.58;43.70;100648.44;4979074;28;20034;-81
2023/08/20 06:36:04;;;;;;;11.85;6.93;;;;;;;29.73;43.54;100658.13;4985192;28;20050;-81
2023/08/20 06:38:29;;;;;;;19.08;7.03;;;;;;;29.80;43.62;100650.50;4999945;28;20412;-84
2023/08/20 06:40:56;;;;;;;15.43;7.60;;;;;;;29.88;43.32;100642.63;4983881;28;20110;-83
2023/08/20 06:43:24;;;;;;;19.00;5.95;;;;;;;30.08;43.02;100647.69;4988567;28;20039;-85
2023/08/20 06:45:53;;;;;;;9.05;5.85;;;;;;;30.16;42.79;100636.16;4995064;28;20034;-90
2023/08/20 06:48:20;;;;;;;9.75;6.57;;;;;;;30.30;41.87;100650.53;4994580;28;20035;-89
2023/08/20 06:50:45;;;;;;;11.05;6.38;;;;;;;30.35;41.73;100637.56;4990211;28;20046;-81
2023/08/20 06:53:11;;;;;;;15.35;7.45;;;;;;;30.47;41.66;100637.50;4976926;28;20027;-82
2023/08/20 06:55:36;;;;;;;12.95;6.13;;;;;;;30.59;40.63;100636.31;4990247;28;20011;-84
2023/08/20 06:58:02;;;;;;;13.73;6.15;;;;;;;30.74;40.34;100635.66;4989425;28;20066;-83
2023/08/20 07:00:27;;;;;;;19.48;6.43;;;;;;;30.87;40.24;100645.56;4972802;28;20093;-87
2023/08/20 07:02:53;;;;;;;9.45;6.07;;;;;;;30.97;39.79;100635.47;4973363;28;20053;-87
2023/08/20 07:05:18;;;;;;;19.50;7.25;;;;;;;30.94;39.61;100619.31;4969592;28;20023;-87
2023/08/20 07:07:45;;;;;;;11.00;7.43;;;;;;;31.16;39.72;100636.78;4970032;28;20491;-85
2023/08/20 07:10:10;;;;;;;19.42;6.57;;;;;;;31.27;39.18;100638.63;4970065;28;20042;-88
2023/08/20 07:12:36;;;;;;;23.92;9.02;;;;;;;31.32;38.82;100635.03;4969676;28;20035;-84
2023/08/20 07:15:01;;;;;;;22.98;8.98;;;;;;;31.44;38.05;100629.31;4969004;28;20034;-83
2023/08/20 07:17:27;;;;;;;20.63;9.32;;;;;;;31.53;38.26;100633.38;4972787;28;20045;-88
2023/08/20 07:19:52;;;;;;;14.02;8.20;;;;;;;31.65;37.96;100645.16;4974155;28;20019;-88
2023/08/20 07:22:18;;;;;;;20.88;7.85;;;;;;;31.56;37.78;100616.16;4974721;28;20133;-88
2023/08/20 07:24:43;;;;;;;29.33;10.68;;;;;;;31.78;38.15;100631.66;4972770;28;20058;-87
2023/08/20 07:27:11;;;;;;;18.30;7.38;;;;;;;31.89;37.68;100635.38;4975273;28;20042;-85
2023/08/20 07:29:36;;;;;;;13.65;7.55;;;;;;;32.05;37.40;100628.84;4974096;28;20023;-88
2023/08/20 07:32:03;;;;;;;28.55;13.30;;;;;;;32.09;37.66;100616.09;4973573;28;20093;-84
2023/08/20 07:34:29;;;;;;;19.25;8.20;;;;;;;32.27;37.07;100629.59;4973634;28;20437;-82
2023/08/20 07:36:57;;;;;;;17.48;8.10;;;;;;;32.37;36.85;100622.41;4973657;28;20034;-86
2023/08/20 07:39:23;;;;;;;19.08;9.45;;;;;;;32.49;36.66;100632.25;4972852;28;20033;-87
2023/08/20 07:41:48;;;;;;;19.85;10.55;;;;;;;32.59;36.73;100625.94;4973473;28;20068;-87
2023/08/20 07:44:14;;;;;;;15.18;7.05;;;;;;;32.69;36.60;100626.00;4973579;28;20031;-88
2023/08/20 07:46:39;;;;;;;15.05;6.35;;;;;;;32.66;36.23;100604.25;4974993;28;20054;-83
2023/08/20 07:49:05;;;;;;;22.58;8.35;;;;;;;32.75;36.51;100602.63;4972568;28;20479;-84
2023/08/20 07:51:30;;;;;;;25.38;8.55;;;;;;;32.89;36.30;100612.16;4973278;28;20641;-85
2023/08/20 07:53:58;;;;;;;17.20;9.20;;;;;;;32.94;36.14;100606.59;4974070;28;20101;-89
2023/08/20 07:56:23;;;;;;;20.27;10.02;;;;;;;33.11;35.93;100620.38;4973601;28;20054;-91
2023/08/20 07:58:49;;;;;;;13.35;6.80;;;;;;;33.09;35.74;100598.31;4973604;28;20077;-92
2023/08/20 08:01:14;;;;;;;16.05;6.95;;;;;;;33.21;36.07;100596.13;4972246;28;20030;-91
2023/08/20 08:03:40;;;;;;;24.25;7.20;;;;;;;33.21;35.96;100598.09;4973613;28;20034;-91
2023/08/20 08:06:06;;;;;;;12.80;6.72;;;;;;;33.27;35.29;100589.44;4973426;28;20097;-87
2023/08/20 08:08:31;;;;;;;19.92;6.93;;;;;;;33.41;35.89;100600.94;4973637;28;20038;-91
2023/08/20 08:10:56;;;;;;;20.15;6.63;;;;;;;33.45;35.63;100606.78;4972866;28;20031;-92
2023/08/20 08:13:23;;;;;;;16.88;9.40;;;;;;;33.33;36.05;100585.56;4973046;28;20102;-90
2023/08/20 08:15:49;;;;;;;14.02;7.10;;;;;;;33.52;35.75;100612.91;4972629;28;20106;-86
2023/08/20 08:18:15;;;;;;;18.08;7.65;;;;;;;33.54;35.69;100605.13;4972951;28;20035;-86
2023/08/20 08:20:40;;;;;;;11.13;6.82;;;;;;;33.55;35.54;100599.25;4989070;28;20050;-85
2023/08/20 08:23:06;;;;;;;18.98;7.97;;;;;;;33.62;35.10;100596.25;4973819;28;20035;-85
2023/08/20 08:25:32;;;;;;;18.98;8.35;;;;;;;33.74;35.18;100602.38;4973858;28;20621;-86
2023/08/20 08:27:57;;;;;;;20.77;7.68;;;;;;;33.67;34.95;100599.88;4973147;28;20462;-87
2023/08/20 08:30:23;;;;;;;15.20;9.05;;;;;;;33.79;35.14;100602.41;4973082;28;20055;-86
2023/08/20 08:32:48;;;;;;;35.70;8.70;;;;;;;33.89;35.17;100592.06;4972957;28;20579;-90
2023/08/20 08:35:13;;;;;;;23.30;9.65;;;;;;;34.00;34.92;100592.06;4987642;28;20125;-89
2023/08/20 08:37:39;;;;;;;15.35;6.13;;;;;;;34.09;34.23;100604.34;4972160;28;20038;-88
2023/08/20 08:40:05;;;;;;;16.27;6.70;;;;;;;34.13;34.34;100597.94;4972194;28;20038;-87
2023/08/20 08:42:32;;;;;;;12.18;6.78;;;;;;;34.15;34.42;100584.56;4972598;28;20054;-87
2023/08/20 08:44:59;;;;;;;21.45;7.18;;;;;;;34.26;34.18;100582.56;4976230;28;20104;-88
2023/08/20 08:47:26;;;;;;;14.55;6.95;;;;;;;34.39;34.00;100595.97;4972806;28;20042;-88
2023/08/20 08:49:54;;;;;;;14.93;7.10;;;;;;;34.56;33.43;100599.25;4972790;28;20027;-88
2023/08/20 08:52:22;;;;;;;31.17;8.88;;;;;;;34.50;33.44;100575.25;4973116;28;20495;-89
2023/08/20 08:54:48;;;;;;;24.33;7.55;;;;;;;34.63;33.09;100583.06;4972836;28;20091;-90
2023/08/20 08:57:15;;;;;;;19.85;8.07;;;;;;;34.65;32.93;100572.44;4971019;28;20117;-91
2023/08/20 08:59:41;;;;;;;20.23;7.28;;;;;;;34.80;33.40;100585.53;4987657;28;20039;-90
2023/08/20 09:02:11;;;;;;;21.23;6.90;;;;;;;34.84;32.12;100595.00;4972431;28;20031;-90
2023/08/20 09:04:41;;;;;;;19.73;5.88;;;;;;;34.87;31.78;100586.03;4972715;28;20584;-89
2023/08/20 09:07:11;;;;;;;12.65;5.75;;;;;;;34.93;31.32;100584.88;4971664;28;20023;-89
2023/08/20 09:09:38;;;;;;;11.15;6.55;;;;;;;34.92;31.28;100586.03;4987653;28;20218;-89
2023/08/20 09:12:16;;;;;;;18.40;6.50;;;;;;;35.05;31.16;100590.13;4986666;28;20033;-89
2023/08/20 09:14:51;;;;;;;11.27;6.05;;;;;;;35.02;31.07;100576.72;4973060;28;20030;-90
2023/08/20 09:17:19;;;;;;;12.63;6.50;;;;;;;35.07;31.14;100585.97;4989700;28;20034;-90
2023/08/20 09:19:45;;;;;;;13.85;5.63;;;;;;;35.13;30.94;100590.44;4973797;28;20121;-90
2023/08/20 09:22:12;;;;;;;28.90;5.85;;;;;;;35.12;31.02;100583.16;4981850;28;20518;-88
2023/08/20 09:24:46;;;;;;;17.23;6.20;;;;;;;35.20;31.03;100584.53;4988927;28;20096;-90
2023/08/20 09:27:13;;;;;;;12.95;5.43;;;;;;;35.21;31.12;100581.44;4972550;28;20169;-90
2023/08/20 09:29:45;;;;;;;16.75;5.82;;;;;;;35.27;30.78;100571.03;4989227;28;20145;-90
2023/08/20 09:32:24;;;;;;;23.58;5.65;;;;;;;35.43;30.75;100583.81;4989145;28;20077;-91
2023/08/20 09:34:51;;;;;;;16.77;5.07;;;;;;;35.53;30.82;100588.50;4989913;28;20057;-91
2023/08/20 09:37:20;;;;;;;21.15;6.35;;;;;;;35.56;33.00;100576.72;4989572;28;20047;-91
2023/08/20 09:39:46;;;;;;;12.52;5.05;;;;;;;35.56;31.30;100583.16;4972689;28;20030;-91
2023/08/20 09:42:12;;;;;;;17.40;5.43;;;;;;;35.67;30.54;100589.53;4972670;28;20200;-89
2023/08/20 09:44:42;;;;;;;19.77;4.65;;;;;;;35.45;31.24;100571.19;4972756;28;20026;-91
2023/08/20 09:47:11;;;;;;;16.77;5.68;;;;;;;35.53;31.46;100577.31;4988897;28;20177;-87
2023/08/20 09:49:46;;;;;;;14.25;5.13;;;;;;;35.62;31.84;100578.41;4971303;28;20031;-87
2023/08/20 09:52:17;;;;;;;10.75;4.70;;;;;;;35.67;31.88;100595.97;4972579;28;20036;-87
2023/08/20 09:54:59;;;;;;;24.55;7.22;;;;;;;35.69;30.75;100588.13;4971603;28;20027;-85
2023/08/20 09:57:33;;;;;;;7.97;3.78;;;;;;;35.66;28.55;100583.09;4972257;28;20042;-86
2023/08/20 10:00:00;;;;;;;21.00;6.63;;;;;;;35.67;28.18;100578.34;4971116;28;20027;-87
2023/08/20 10:02:26;;;;;;;12.65;5.40;;;;;;;35.67;27.97;100583.94;4970986;28;20026;-87
2023/08/20 10:04:52;;;;;;;24.05;5.05;;;;;;;35.78;28.09;100586.34;4972361;28;20033;-86
2023/08/20 10:07:18;;;;;;;22.00;5.10;;;;;;;35.76;30.49;100573.78;4971033;28;20066;-85
2023/08/20 10:09:45;;;;;;;21.67;6.82;;;;;;;35.82;31.63;100592.22;4971337;28;20027;-85
2023/08/20 10:12:15;;;;;;;12.23;4.50;;;;;;;35.83;32.39;100583.53;4970812;28;20620;-86
2023/08/20 10:14:41;;;;;;;12.85;4.07;;;;;;;35.89;31.21;100593.56;4972402;28;20517;-89
2023/08/20 10:17:12;;;;;;;14.23;4.28;;;;;;;35.91;32.65;100585.69;4973478;28;20034;-85
2023/08/20 10:19:38;;;;;;;28.48;5.00;;;;;;;35.77;31.56;100578.28;4970782;28;20535;-86
2023/08/20 10:22:06;;;;;;;16.73;5.00;;;;;;;35.48;30.42;100570.63;4970931;28;20101;-88
2023/08/20 10:24:49;;;;;;;7.65;3.85;;;;;;;35.45;31.34;100576.78;4970412;28;20490;-87
2023/08/20 10:27:27;;;;;;;26.63;4.35;;;;;;;35.35;32.09;100564.84;4970625;28;20868;-87
2023/08/20 10:29:56;;;;;;;9.05;3.63;;;;;;;35.40;32.32;100578.78;4970639;28;20023;-87
2023/08/20 10:32:45;;;;;;;7.93;3.42;;;;;;;35.33;31.36;100553.94;4971073;28;20038;-87
2023/08/20 10:35:12;;;;;;;5.60;3.05;;;;;;;35.31;31.46;100564.59;4970644;28;20041;-77
2023/08/20 10:37:39;;;;;;;6.05;3.22;;;;;;;35.32;31.67;100583.03;4970065;28;20031;-79
2023/08/20 10:40:06;;;;;;;10.88;3.42;;;;;;;35.31;31.06;100567.38;4970176;28;20101;-85
2023/08/20 10:42:32;;;;;;;28.30;5.65;;;;;;;35.16;30.91;100567.47;4970871;28;20043;-83
2023/08/20 10:45:10;;;;;;;14.88;3.78;;;;;;;35.23;30.86;100579.16;4969912;28;20018;-84
2023/08/20 10:47:44;;;;;;;15.18;3.92;;;;;;;35.25;30.38;100556.53;4970041;28;20759;-85
2023/08/20 10:50:11;;;;;;;12.00;3.97;;;;;;;35.40;29.85;100582.44;4970187;28;20027;-83
2023/08/20 10:52:40;;;;;;;17.83;3.83;;;;;;;35.34;29.33;100583.59;4972406;28;20515;-79
2023/08/20 10:55:08;;;;;;;24.85;4.78;;;;;;;35.38;28.55;100586.66;4973575;28;20026;-79
2023/08/20 10:57:35;;;;;;;11.60;3.60;;;;;;;35.33;29.00;100567.91;4973844;28;20093;-87
2023/08/20 11:00:11;;;;;;;14.25;4.00;;;;;;;35.47;28.88;100574.53;4974271;28;20027;-85
2023/08/20 11:02:41;;;;;;;7.90;3.05;;;;;;;35.55;28.29;100575.03;4974137;28;20506;-85
2023/08/20 11:05:36;;;;;;;7.65;2.35;;;;;;;35.54;28.10;100574.19;4988637;28;20062;-82
2023/08/20 11:08:05;;;;;;;6.57;3.08;;;;;;;35.62;28.44;100581.19;4933541;29;20518;-82
2023/08/20 11:10:32;;;;;;;13.70;3.20;;;;;;;35.53;28.27;100571.72;4917797;29;20558;-83
2023/08/20 11:12:58;;;;;;;7.10;3.45;;;;;;;35.62;28.32;100567.19;4933498;29;20044;-81
2023/08/20 11:15:23;;;;;;;7.35;3.25;;;;;;;35.71;28.77;100573.84;4933791;29;20078;-85